createdAt,value
2022-12-01T00:01:10.932Z,100928.53
2022-12-01T00:03:37.641Z,100921.22
2022-12-01T00:06:05.544Z,100924.16
2022-12-01T00:08:32.261Z,100918.84
2022-12-01T00:11:10.559Z,100912.97
2022-12-01T00:13:37.137Z,100919.78
2022-12-01T00:16:15.145Z,100920.06
2022-12-01T00:18:41.897Z,100915.94
2022-12-01T00:21:16.535Z,100921.53
2022-12-01T00:23:44.367Z,100917.72
2022-12-01T00:26:10.879Z,100912.53
2022-12-01T00:28:37.451Z,100919.34
2022-12-01T00:31:08.101Z,100922.56
2022-12-01T00:33:34.677Z,100926.13
2022-12-01T00:36:01.622Z,100922.13
2022-12-01T00:38:28.706Z,100919.63
2022-12-01T00:40:55.547Z,100922.88
2022-12-01T00:43:22.132Z,100919.78
2022-12-01T00:45:48.683Z,100915.94
2022-12-01T00:48:15.295Z,100907.09
2022-12-01T00:50:42.107Z,100910.78
2022-12-01T00:53:08.739Z,100910.63
2022-12-01T00:55:35.264Z,100903.56
2022-12-01T00:58:01.951Z,100905.94
2022-12-01T01:00:28.513Z,100915.06
2022-12-01T01:02:55.214Z,100910.94
2022-12-01T01:05:21.928Z,100903.56
2022-12-01T01:07:48.477Z,100908.44
2022-12-01T01:10:15.047Z,100901.19
2022-12-01T01:12:41.683Z,100910.66
2022-12-01T01:15:08.699Z,100906.34
2022-12-01T01:17:35.302Z,100904.75
2022-12-01T01:20:02.024Z,100897.22
2022-12-01T01:22:28.530Z,100904.16
2022-12-01T01:24:55.062Z,100907.69
2022-12-01T01:27:21.632Z,100904.16
2022-12-01T01:29:48.444Z,100904.16
2022-12-01T01:32:15.123Z,100907.09
2022-12-01T01:34:41.681Z,100909.03
2022-12-01T01:37:08.220Z,100898.25
2022-12-01T01:39:34.763Z,100904.91
2022-12-01T01:42:01.323Z,100907.97
2022-12-01T01:44:46.671Z,100904.75
2022-12-01T01:47:14.230Z,100889.41
2022-12-01T01:49:42.511Z,100891.19
2022-12-01T01:52:09.625Z,100895.88
2022-12-01T01:54:42.230Z,100898.41
2022-12-01T01:57:11.912Z,100891.19
2022-12-01T01:59:46.079Z,100890.59
2022-12-01T02:02:13.171Z,100890.00
2022-12-01T02:04:45.247Z,100889.13
2022-12-01T02:07:15.049Z,100888.81
2022-12-01T02:09:41.559Z,100882.50
2022-12-01T02:12:11.492Z,100885.56
2022-12-01T02:14:59.947Z,100885.56
2022-12-01T02:18:05.032Z,100887.06
2022-12-01T02:20:46.815Z,100882.19
2022-12-01T02:23:38.303Z,100880.38
2022-12-01T02:26:16.727Z,100878.19
2022-12-01T02:29:02.068Z,100881.75
2022-12-01T07:19:36.497Z,100906.19
2022-12-01T07:22:03.215Z,100908.81
2022-12-01T07:24:30.679Z,100914.09
2022-12-01T07:26:57.241Z,100911.28
2022-12-01T07:29:23.759Z,100908.78
2022-12-01T07:31:50.303Z,100907.59
2022-12-01T07:34:16.966Z,100910.66
2022-12-01T07:36:43.480Z,100912.00
2022-12-01T07:39:09.999Z,100915.69
2022-12-01T07:41:36.669Z,100917.59
2022-12-01T07:44:03.588Z,100914.63
2022-12-01T07:46:30.423Z,100908.28
2022-12-01T07:48:57.735Z,100911.16
2022-12-01T07:51:25.738Z,100912.50
2022-12-01T07:53:53.596Z,100908.19
2022-12-01T07:56:21.147Z,100904.78
2022-12-01T07:58:47.765Z,100913.00
2022-12-01T08:01:20.429Z,100906.16
2022-12-01T08:03:55.042Z,100907.50
2022-12-01T08:06:22.916Z,100902.59
2022-12-01T08:08:50.072Z,100907.72
2022-12-01T08:11:22.768Z,100899.03
2022-12-01T08:13:50.312Z,100895.84
2022-12-01T08:16:19.266Z,100906.66
2022-12-01T08:18:46.140Z,100892.28
2022-12-01T08:21:15.951Z,100906.94
2022-12-01T08:23:43.146Z,100901.94
2022-12-01T08:26:14.309Z,100893.91
2022-12-01T08:28:41.380Z,100898.84
2022-12-01T08:31:24.006Z,100892.94
2022-12-01T08:33:51.109Z,100891.31
2022-12-01T08:36:18.812Z,100891.72
2022-12-01T08:38:46.989Z,100899.06
2022-12-01T08:41:14.442Z,100896.34
2022-12-01T08:44:00.407Z,100901.91
2022-12-01T08:46:28.122Z,100895.44
2022-12-01T08:48:57.245Z,100892.53
2022-12-01T08:51:24.359Z,100894.66
2022-12-01T08:53:51.047Z,100888.38
2022-12-01T08:56:24.192Z,100887.41
2022-12-01T08:58:51.739Z,100895.22
2022-12-01T09:01:19.076Z,100896.53
2022-12-01T09:03:45.769Z,100895.28
2022-12-01T09:06:17.771Z,100895.44
2022-12-01T09:08:44.346Z,100883.25
2022-12-01T09:11:14.762Z,100880.50
2022-12-01T09:13:42.739Z,100874.72
2022-12-01T09:16:13.554Z,100873.38
2022-12-01T09:18:41.205Z,100875.00
2022-12-01T09:21:22.807Z,100871.00
2022-12-01T09:23:50.191Z,100871.72
2022-12-01T09:26:19.070Z,100875.28
2022-12-01T09:28:46.977Z,100870.22
2022-12-01T09:31:15.089Z,100865.56
2022-12-01T09:33:42.142Z,100870.72
2022-12-01T09:36:09.240Z,100866.66
2022-12-01T09:38:37.692Z,100867.81
2022-12-01T09:41:18.065Z,100869.19
2022-12-01T09:44:14.047Z,100871.06
2022-12-01T09:46:45.853Z,100871.81
2022-12-01T09:49:18.855Z,100862.72
2022-12-01T09:51:45.634Z,100860.81
2022-12-01T09:54:14.309Z,100860.56
2022-12-01T09:56:52.874Z,100869.75
2022-12-01T09:59:27.084Z,100870.78
2022-12-01T10:02:01.081Z,100864.44
2022-12-01T10:04:48.444Z,100869.22
2022-12-01T10:07:26.740Z,100866.59
2022-12-01T10:09:59.298Z,100861.50
2022-12-01T10:12:31.100Z,100849.97
2022-12-01T10:15:23.198Z,100852.81
2022-12-01T10:18:28.958Z,100844.22
2022-12-01T10:21:23.519Z,100836.84
2022-12-01T10:23:58.621Z,100837.09
2022-12-01T10:26:52.971Z,100841.72
2022-12-01T10:29:22.458Z,100838.91
2022-12-01T10:31:54.913Z,100839.19
2022-12-01T10:34:36.307Z,100833.47
2022-12-01T10:37:03.367Z,100830.03
2022-12-01T15:42:39.658Z,100818.38
2022-12-01T15:45:15.044Z,100823.19
2022-12-01T15:47:43.422Z,100814.88
2022-12-01T15:50:59.043Z,100818.66
2022-12-01T15:53:29.444Z,100814.13
2022-12-01T15:55:59.283Z,100808.72
2022-12-01T15:58:31.387Z,100815.16
2022-12-01T16:01:04.675Z,100809.09
2022-12-01T16:03:34.164Z,100809.84
2022-12-01T16:06:00.928Z,100809.47
2022-12-01T16:08:28.231Z,100798.63
2022-12-01T16:11:09.788Z,100805.41
2022-12-01T16:13:45.270Z,100802.03
2022-12-01T16:16:41.630Z,100809.50
2022-12-01T16:19:08.166Z,100796.56
2022-12-01T16:21:44.851Z,100796.91
2022-12-01T16:24:16.012Z,100799.66
2022-12-01T16:26:55.632Z,100796.66
2022-12-01T16:29:24.607Z,100799.63
2022-12-01T16:32:18.567Z,100806.22
2022-12-01T16:34:46.295Z,100790.22
2022-12-01T16:37:13.827Z,100798.22
2022-12-01T16:39:40.527Z,100788.66
2022-12-01T16:42:10.703Z,100794.75
2022-12-01T16:44:37.327Z,100801.81
2022-12-01T16:47:10.253Z,100801.81
2022-12-01T16:49:36.788Z,100803.59
2022-12-01T16:52:22.113Z,100803.31
2022-12-01T16:54:50.303Z,100800.59
2022-12-01T16:57:17.386Z,100800.72
2022-12-01T16:59:44.564Z,100786.13
2022-12-01T17:02:12.040Z,100794.16
2022-12-01T17:04:38.600Z,100799.50
2022-12-01T17:07:05.149Z,100797.91
2022-12-01T17:09:31.803Z,100800.75
2022-12-01T17:11:59.211Z,100791.84
2022-12-01T17:14:25.837Z,100800.41
2022-12-01T17:16:52.454Z,100799.78
2022-12-01T17:19:21.317Z,100799.84
2022-12-01T17:21:47.831Z,100797.81
2022-12-01T17:24:18.886Z,100790.97
2022-12-01T17:26:45.828Z,100795.78
2022-12-01T17:29:12.367Z,100801.59
2022-12-01T17:31:39.050Z,100792.78
2022-12-01T17:34:05.767Z,100798.56
2022-12-01T17:36:32.296Z,100788.44
2022-12-01T17:38:58.938Z,100779.19
2022-12-01T17:41:32.083Z,100778.50
2022-12-01T17:44:01.430Z,100784.97
2022-12-01T17:46:28.062Z,100790.09
2022-12-01T17:48:54.667Z,100783.44
2022-12-01T17:51:21.511Z,100783.69
2022-12-01T17:53:48.073Z,100785.03
2022-12-01T17:56:16.399Z,100783.75
2022-12-01T17:58:43.745Z,100788.03
2022-12-01T18:01:16.255Z,100800.94
2022-12-01T18:03:43.336Z,100798.63
2022-12-01T18:06:10.148Z,100797.91
2022-12-01T18:08:37.307Z,100790.97
2022-12-01T18:11:10.109Z,100791.66
2022-12-01T18:13:41.144Z,100790.22
2022-12-01T18:16:13.933Z,100783.31
2022-12-01T18:18:40.824Z,100791.81
2022-12-01T18:21:09.148Z,100789.41
2022-12-01T18:23:36.430Z,100782.47
2022-12-01T18:26:13.745Z,100783.59
2022-12-01T18:28:42.200Z,100783.91
2022-12-01T18:31:14.125Z,100787.44
2022-12-01T18:33:43.236Z,100788.25
2022-12-01T18:36:13.389Z,100792.81
2022-12-01T18:38:40.365Z,100792.31
2022-12-01T18:41:07.184Z,100786.97
2022-12-01T18:43:34.160Z,100787.59
2022-12-01T18:46:03.174Z,100791.38
2022-12-01T18:48:29.864Z,100794.63
2022-12-01T22:47:45.011Z,100773.06
2022-12-01T22:50:28.145Z,100772.50
2022-12-01T22:52:59.747Z,100771.56
2022-12-01T22:55:26.271Z,100771.00
2022-12-01T22:57:52.883Z,100771.13
2022-12-01T23:00:23.061Z,100771.88
2022-12-01T23:02:52.149Z,100768.88
2022-12-01T23:05:25.142Z,100768.31
2022-12-01T23:07:52.919Z,100764.47
2022-12-01T23:10:22.389Z,100762.41
2022-12-01T23:12:51.351Z,100764.63
2022-12-01T23:15:30.367Z,100763.41
2022-12-01T23:17:59.963Z,100764.28
2022-12-01T23:20:30.512Z,100760.63
2022-12-01T23:23:00.376Z,100757.63
2022-12-01T23:25:27.847Z,100760.16
2022-12-01T23:28:00.165Z,100752.63
2022-12-01T23:30:27.603Z,100762.41
2022-12-01T23:33:13.482Z,100746.22
2022-12-01T23:35:52.292Z,100753.28
2022-12-01T23:38:22.747Z,100750.91
2022-12-01T23:40:51.393Z,100745.03
2022-12-01T23:43:28.177Z,100751.63
2022-12-01T23:46:09.749Z,100755.13
2022-12-01T23:48:41.588Z,100754.19
2022-12-01T23:51:25.323Z,100748.53
2022-12-01T23:53:53.337Z,100750.88
2022-12-01T23:56:22.905Z,100750.31
2022-12-01T23:58:49.870Z,100749.16
